createdAt,value
2019-05-06T00:01:33.773Z,32.97
2019-05-06T00:06:38.215Z,31.97
2019-05-06T00:11:44.838Z,30.60
2019-05-06T00:16:50.273Z,30.63
2019-05-06T00:22:14.493Z,36.57
2019-05-06T00:27:40.536Z,34.20
2019-05-06T00:32:45.869Z,37.40
2019-05-06T00:37:53.525Z,34.60
2019-05-06T00:43:17.311Z,28.83
2019-05-06T00:48:24.390Z,32.93
2019-05-06T00:53:31.087Z,33.47
2019-05-06T00:58:36.325Z,24.83
2019-05-06T01:04:00.853Z,34.00
2019-05-06T01:09:26.270Z,32.17
2019-05-06T01:14:35.085Z,26.67
2019-05-06T01:19:59.064Z,32.93
2019-05-06T01:25:05.710Z,28.60
2019-05-06T01:30:30.350Z,33.33
2019-05-06T01:35:54.922Z,35.50
2019-05-06T01:41:33.862Z,36.30
2019-05-06T01:46:38.662Z,46.60
2019-05-06T01:51:43.869Z,39.93
2019-05-06T01:56:49.837Z,44.20
2019-05-06T02:02:15.150Z,49.47
2019-05-06T02:07:20.421Z,51.10
2019-05-06T02:12:25.686Z,50.67
2019-05-06T02:17:30.683Z,42.00
2019-05-06T02:22:37.473Z,43.07
2019-05-06T02:27:44.409Z,48.53
2019-05-06T02:32:59.924Z,53.17
2019-05-06T02:38:05.132Z,46.20
2019-05-06T02:43:13.458Z,40.97
2019-05-06T02:48:25.623Z,42.17
2019-05-06T02:53:33.133Z,43.43
2019-05-06T02:58:37.550Z,34.60
2019-05-06T03:04:04.437Z,40.93
2019-05-06T03:09:09.064Z,40.10
2019-05-06T03:14:14.287Z,44.23
2019-05-06T03:19:34.185Z,37.60
2019-05-06T03:24:43.605Z,40.33
2019-05-06T03:29:47.991Z,41.57
2019-05-06T03:35:16.502Z,39.53
2019-05-06T03:40:02.779Z,35.87
2019-05-06T03:45:09.630Z,37.37
2019-05-06T03:50:15.388Z,40.67
2019-05-06T03:55:23.321Z,39.30
2019-05-06T04:00:27.546Z,39.23
2019-05-06T04:05:33.415Z,39.67
2019-05-06T04:10:58.234Z,33.50
2019-05-06T04:16:30.344Z,28.93
2019-05-06T04:21:56.385Z,27.37
2019-05-06T04:27:42.960Z,34.03
2019-05-06T04:33:12.934Z,36.27
2019-05-06T04:38:16.197Z,32.70
2019-05-06T04:43:23.520Z,37.10
2019-05-06T04:48:28.619Z,43.50
2019-05-06T04:53:34.244Z,41.97
2019-05-06T04:58:42.735Z,44.20
2019-05-06T05:03:47.296Z,48.27
2019-05-06T05:08:53.895Z,45.17
2019-05-06T05:14:25.330Z,44.40
2019-05-06T05:19:28.815Z,47.50
2019-05-06T05:24:35.325Z,47.77
2019-05-06T05:29:42.336Z,40.43
2019-05-06T05:34:47.760Z,47.10
2019-05-06T05:40:12.939Z,51.67
2019-05-06T05:45:18.604Z,48.63
2019-05-06T05:50:44.848Z,46.60
2019-05-06T05:55:52.738Z,44.07
2019-05-06T06:00:58.326Z,54.47
2019-05-06T06:06:03.608Z,53.07
2019-05-06T06:22:22.784Z,42.33
2019-05-06T06:27:29.068Z,39.47
2019-05-06T06:32:34.565Z,31.10
2019-05-06T06:37:42.674Z,27.90
2019-05-06T06:43:08.815Z,24.73
2019-05-06T06:48:13.786Z,24.73
2019-05-06T06:53:19.040Z,22.53
2019-05-06T06:58:32.865Z,19.70
2019-05-06T07:03:40.124Z,22.03
2019-05-06T07:08:45.418Z,21.13
2019-05-06T07:13:53.501Z,25.17
2019-05-06T07:18:58.671Z,19.80
2019-05-06T07:24:03.892Z,21.13
2019-05-06T07:29:16.817Z,25.73
2019-05-06T07:34:15.619Z,21.43
2019-05-06T07:39:23.790Z,21.97
2019-05-06T07:44:28.901Z,17.80
2019-05-06T07:49:34.216Z,15.70
2019-05-06T07:54:39.439Z,16.57
2019-05-06T07:59:44.657Z,14.80
2019-05-06T08:04:49.769Z,13.20
2019-05-06T08:10:13.942Z,12.77
2019-05-06T08:15:18.979Z,11.57
2019-05-06T08:20:27.846Z,5.30
2019-05-06T08:25:42.514Z,6.63
2019-05-06T08:30:47.216Z,7.43
2019-05-06T08:35:53.314Z,8.47
2019-05-06T08:40:59.006Z,9.97
2019-05-06T08:46:03.998Z,9.00
2019-05-06T08:51:12.697Z,7.83
2019-05-06T08:56:19.256Z,9.13
2019-05-06T09:01:28.684Z,9.00
2019-05-06T09:06:34.514Z,22.33
2019-05-06T09:11:42.859Z,8.33
2019-05-06T09:16:50.364Z,5.17
2019-05-06T09:21:53.614Z,4.87
2019-05-06T09:27:00.268Z,9.00
2019-05-06T09:32:07.203Z,7.00
2019-05-06T09:37:14.022Z,4.93
2019-05-06T09:42:19.604Z,7.43
2019-05-06T09:47:42.716Z,4.17
2019-05-06T09:52:47.823Z,6.67
2019-05-06T09:58:07.005Z,6.93
2019-05-06T10:03:12.479Z,5.50
2019-05-06T10:08:17.759Z,5.87
2019-05-06T10:13:22.886Z,5.17
2019-05-06T10:18:28.053Z,7.33
2019-05-06T10:23:33.245Z,4.40
2019-05-06T10:28:39.924Z,3.77
2019-05-06T10:34:03.588Z,3.53
2019-05-06T10:39:12.665Z,4.23
2019-05-06T10:44:23.944Z,5.00
2019-05-06T10:49:29.369Z,4.10
2019-05-06T10:54:34.617Z,3.37
2019-05-06T10:59:39.794Z,8.03
2019-05-06T11:04:44.777Z,8.00
2019-05-06T11:09:49.738Z,3.77
2019-05-06T11:14:55.753Z,4.80
2019-05-06T11:20:06.183Z,3.00
2019-05-06T11:25:08.178Z,4.20
2019-05-06T11:30:21.882Z,3.17
2019-05-06T11:35:32.816Z,3.87
2019-05-06T11:40:38.166Z,8.33
2019-05-06T11:45:43.407Z,5.27
2019-05-06T11:50:49.890Z,4.30
2019-05-06T11:55:55.249Z,6.87
2019-05-06T12:01:02.728Z,7.10
2019-05-06T12:06:07.976Z,4.40
2019-05-06T12:11:13.184Z,5.07
2019-05-06T12:16:18.434Z,6.17
2019-05-06T12:21:23.411Z,6.77
2019-05-06T12:26:28.357Z,7.17
2019-05-06T12:31:33.592Z,6.87
2019-05-06T12:36:38.563Z,5.87
2019-05-06T12:41:47.999Z,6.77
2019-05-06T12:47:13.443Z,8.10
2019-05-06T12:52:19.289Z,4.90
2019-05-06T12:57:24.535Z,8.20
2019-05-06T13:02:29.859Z,14.80
2019-05-06T13:07:54.258Z,10.30
2019-05-06T13:13:00.986Z,12.33
2019-05-06T13:18:07.345Z,5.97
2019-05-06T13:23:24.632Z,7.20
2019-05-06T13:28:30.466Z,7.63
2019-05-06T13:33:49.093Z,6.90
2019-05-06T13:39:09.581Z,7.73
2019-05-06T13:44:13.174Z,9.07
2019-05-06T13:49:23.007Z,7.37
2019-05-06T13:54:28.521Z,7.70
2019-05-06T13:59:35.467Z,10.03
2019-05-06T14:04:44.321Z,9.07
2019-05-06T14:09:47.969Z,10.17
2019-05-06T14:14:52.953Z,8.43
2019-05-06T14:19:58.248Z,11.90
2019-05-06T14:25:12.542Z,7.63
2019-05-06T14:30:22.780Z,10.17
2019-05-06T14:35:28.244Z,12.90
2019-05-06T14:40:34.999Z,9.70
2019-05-06T14:45:42.222Z,9.23
2019-05-06T14:50:48.749Z,9.10
2019-05-06T14:55:55.406Z,5.50
2019-05-06T15:01:03.512Z,8.10
2019-05-06T15:06:07.222Z,8.77
2019-05-06T15:11:12.597Z,5.90
2019-05-06T15:16:17.803Z,8.53
2019-05-06T15:21:36.992Z,6.70
2019-05-06T15:26:30.382Z,7.87
2019-05-06T15:31:53.196Z,10.93
2019-05-06T15:37:09.259Z,11.57
2019-05-06T15:42:14.267Z,9.53
2019-05-06T15:47:19.572Z,11.67
2019-05-06T15:52:24.958Z,9.50
2019-05-06T15:57:32.300Z,5.63
2019-05-06T16:02:37.174Z,7.70
2019-05-06T16:07:43.408Z,5.17
2019-05-06T16:12:49.628Z,8.80
2019-05-06T16:17:54.548Z,7.53
2019-05-06T16:23:03.256Z,6.83
2019-05-06T16:28:08.691Z,6.07
2019-05-06T16:33:16.004Z,7.30
2019-05-06T16:38:22.817Z,8.07
2019-05-06T16:43:27.516Z,6.07
2019-05-06T16:48:32.699Z,12.50
2019-05-06T16:53:38.088Z,9.77
2019-05-06T16:58:47.204Z,7.33
2019-05-06T17:03:53.289Z,22.20
2019-05-06T17:08:58.733Z,16.27
2019-05-06T17:14:03.925Z,8.83
2019-05-06T17:19:09.522Z,7.33
2019-05-06T17:24:14.929Z,20.33
2019-05-06T17:29:38.321Z,9.50
2019-05-06T17:34:45.355Z,8.97
2019-05-06T17:40:06.670Z,9.50
2019-05-06T17:44:58.484Z,5.27
2019-05-06T17:50:05.552Z,8.97
2019-05-06T17:55:11.886Z,7.40
2019-05-06T18:05:49.159Z,16.83
2019-05-06T18:10:54.278Z,9.43
2019-05-06T18:15:59.385Z,11.77
2019-05-06T18:21:04.507Z,12.47
2019-05-06T18:26:09.484Z,7.27
2019-05-06T18:31:33.965Z,11.20
2019-05-06T18:36:39.154Z,11.63
2019-05-06T18:41:46.139Z,10.70
2019-05-06T18:46:53.019Z,15.37
2019-05-06T18:51:58.530Z,11.20
2019-05-06T18:57:05.096Z,7.23
2019-05-06T19:02:12.939Z,7.30
2019-05-06T19:07:18.089Z,11.63
2019-05-06T19:12:31.847Z,7.70
2019-05-06T19:17:29.948Z,11.27
2019-05-06T19:22:36.709Z,10.77
2019-05-06T19:27:42.090Z,14.90
2019-05-06T19:32:47.950Z,42.90
2019-05-06T19:37:53.670Z,35.03
2019-05-06T19:42:58.950Z,18.83
2019-05-06T19:48:04.557Z,16.47
2019-05-06T19:53:11.723Z,26.70
2019-05-06T19:58:16.876Z,18.30
2019-05-06T20:03:23.190Z,15.57
2019-05-06T20:08:33.114Z,16.97
2019-05-06T20:13:38.677Z,22.00
2019-05-06T20:18:44.355Z,22.87
2019-05-06T20:23:49.916Z,21.00
2019-05-06T20:28:55.797Z,17.37
2019-05-06T20:34:02.257Z,19.63
2019-05-06T20:39:08.258Z,19.23
2019-05-06T20:44:13.858Z,17.67
2019-05-06T20:49:38.578Z,19.97
2019-05-06T20:54:44.098Z,31.00
2019-05-06T20:59:49.377Z,20.07
2019-05-06T21:04:54.579Z,20.33
2019-05-06T21:10:02.202Z,39.47
2019-05-06T21:15:26.717Z,40.23
2019-05-06T21:20:33.065Z,32.43
2019-05-06T21:25:39.237Z,24.10
2019-05-06T21:30:44.837Z,19.50
2019-05-06T21:35:52.266Z,17.80
2019-05-06T21:40:57.000Z,19.73
2019-05-06T21:46:02.563Z,19.43
2019-05-06T21:51:07.921Z,22.40
2019-05-06T21:56:13.262Z,22.13
2019-05-06T22:01:18.483Z,21.90
2019-05-06T22:06:24.388Z,20.13
2019-05-06T22:11:31.893Z,22.73
2019-05-06T22:16:56.201Z,18.27
2019-05-06T22:22:05.907Z,26.60
2019-05-06T22:27:12.289Z,21.67
2019-05-06T22:32:46.565Z,24.50
2019-05-06T22:38:12.340Z,22.27
2019-05-06T22:43:17.966Z,37.27
2019-05-06T22:48:23.520Z,38.00
2019-05-06T22:53:48.172Z,33.33
2019-05-06T22:58:53.688Z,29.00
2019-05-06T23:04:21.721Z,31.60
2019-05-06T23:09:26.306Z,29.33
2019-05-06T23:14:52.925Z,23.47
2019-05-06T23:19:57.970Z,22.93
2019-05-06T23:25:03.297Z,24.13
2019-05-06T23:30:09.134Z,23.73
2019-05-06T23:35:14.777Z,24.17
2019-05-06T23:40:57.407Z,19.47
2019-05-06T23:46:38.527Z,21.20
2019-05-06T23:52:22.726Z,26.10
2019-05-06T23:57:27.154Z,21.23
